createdAt,value
2019-05-17T00:01:38.609Z,13.18
2019-05-17T00:04:10.472Z,12.20
2019-05-17T00:06:43.162Z,14.83
2019-05-17T00:09:14.879Z,15.65
2019-05-17T00:11:47.301Z,15.38
2019-05-17T00:14:20.165Z,17.92
2019-05-17T00:16:51.927Z,17.40
2019-05-17T00:19:26.178Z,17.57
2019-05-17T00:21:57.484Z,16.67
2019-05-17T00:24:29.347Z,16.70
2019-05-17T00:27:01.214Z,16.55
2019-05-17T00:29:33.067Z,15.58
2019-05-17T00:32:06.396Z,16.15
2019-05-17T00:34:38.217Z,15.35
2019-05-17T00:37:10.098Z,16.10
2019-05-17T00:39:42.039Z,16.67
2019-05-17T00:42:13.752Z,16.50
2019-05-17T00:44:47.409Z,17.45
2019-05-17T00:47:18.956Z,18.37
2019-05-17T00:49:50.606Z,17.95
2019-05-17T00:52:22.468Z,18.90
2019-05-17T00:54:56.278Z,17.57
2019-05-17T00:57:27.514Z,17.87
2019-05-17T00:59:59.483Z,20.92
2019-05-17T01:02:31.117Z,20.85
2019-05-17T01:05:03.215Z,21.95
2019-05-17T01:07:37.409Z,21.80
2019-05-17T01:10:09.279Z,21.85
2019-05-17T01:12:40.875Z,22.35
2019-05-17T01:15:13.447Z,24.95
2019-05-17T01:17:47.149Z,23.12
2019-05-17T01:20:18.317Z,23.38
2019-05-17T01:22:49.944Z,23.32
2019-05-17T01:25:21.970Z,23.77
2019-05-17T01:27:53.829Z,22.93
2019-05-17T01:30:26.643Z,22.35
2019-05-17T01:32:58.400Z,22.95
2019-05-17T01:35:30.232Z,23.35
2019-05-17T01:38:02.188Z,25.55
2019-05-17T01:40:33.748Z,24.60
2019-05-17T01:43:07.826Z,23.55
2019-05-17T01:45:39.735Z,22.50
2019-05-17T01:48:11.678Z,22.35
2019-05-17T01:50:43.539Z,21.10
2019-05-17T01:53:16.639Z,20.88
2019-05-17T01:55:48.387Z,20.37
2019-05-17T01:58:20.142Z,20.20
2019-05-17T02:00:52.772Z,19.65
2019-05-17T02:03:26.631Z,23.20
2019-05-17T02:05:57.671Z,20.62
2019-05-17T02:08:29.832Z,26.40
2019-05-17T02:11:01.635Z,19.57
2019-05-17T02:13:33.101Z,19.55
2019-05-17T02:16:07.000Z,17.17
2019-05-17T02:18:38.394Z,18.10
2019-05-17T02:21:10.405Z,17.00
2019-05-17T02:23:42.135Z,16.90
2019-05-17T02:26:14.176Z,15.70
2019-05-17T02:28:46.144Z,16.02
2019-05-17T02:31:17.800Z,16.12
2019-05-17T02:33:49.880Z,15.88
2019-05-17T02:36:22.848Z,17.30
2019-05-17T02:38:54.567Z,16.37
2019-05-17T02:41:26.289Z,16.20
2019-05-17T02:43:58.131Z,16.27
2019-05-17T02:46:29.791Z,16.82
2019-05-17T02:49:03.047Z,18.10
2019-05-17T02:51:34.537Z,17.25
2019-05-17T02:54:06.175Z,18.23
2019-05-17T02:56:38.209Z,16.75
2019-05-17T02:59:13.371Z,16.97
2019-05-17T03:01:44.499Z,17.35
2019-05-17T03:04:16.278Z,17.12
2019-05-17T03:06:47.895Z,17.02
2019-05-17T03:09:22.641Z,17.25
2019-05-17T03:11:56.959Z,17.65
2019-05-17T03:14:26.691Z,18.27
2019-05-17T03:16:58.410Z,19.70
2019-05-17T03:19:32.798Z,19.17
2019-05-17T03:22:07.852Z,20.45
2019-05-17T03:24:38.342Z,21.57
2019-05-17T03:27:13.492Z,21.12
2019-05-17T03:29:43.688Z,22.22
2019-05-17T03:32:17.572Z,22.87
2019-05-17T03:34:55.888Z,23.00
2019-05-17T03:37:29.957Z,26.12
2019-05-17T03:39:57.677Z,24.57
2019-05-17T03:42:29.649Z,24.85
2019-05-17T03:45:02.889Z,25.65
2019-05-17T03:47:35.021Z,24.98
2019-05-17T03:50:07.077Z,25.72
2019-05-17T03:52:38.513Z,26.60
2019-05-17T03:55:13.190Z,28.12
2019-05-17T03:57:45.038Z,27.70
2019-05-17T04:00:18.084Z,27.02
2019-05-17T04:02:49.639Z,31.27
2019-05-17T04:05:22.717Z,28.90
2019-05-17T04:07:54.699Z,27.00
2019-05-17T04:10:26.676Z,30.27
2019-05-17T04:12:58.533Z,33.78
2019-05-17T04:15:32.901Z,27.17
2019-05-17T04:18:04.544Z,27.80
2019-05-17T04:20:37.267Z,27.65
2019-05-17T04:23:09.026Z,28.77
2019-05-17T04:25:43.491Z,28.90
2019-05-17T04:28:14.189Z,29.27
2019-05-17T04:30:47.083Z,27.37
2019-05-17T04:33:18.524Z,28.00
2019-05-17T04:35:49.991Z,28.15
2019-05-17T04:38:23.581Z,26.80
2019-05-17T04:40:55.016Z,29.37
2019-05-17T04:43:26.797Z,31.48
2019-05-17T04:45:58.429Z,32.20
2019-05-17T04:48:32.647Z,30.90
2019-05-17T04:51:03.322Z,28.45
2019-05-17T04:53:34.966Z,25.88
2019-05-17T04:56:06.893Z,29.07
2019-05-17T04:58:38.545Z,27.58
2019-05-17T05:01:12.977Z,28.52
2019-05-17T05:03:43.668Z,28.07
2019-05-17T05:06:15.255Z,30.00
2019-05-17T05:08:46.940Z,27.10
2019-05-17T05:11:18.767Z,26.82
2019-05-17T05:13:53.133Z,28.60
2019-05-17T05:16:24.439Z,26.55
2019-05-17T05:18:56.293Z,27.32
2019-05-17T05:21:32.358Z,27.35
2019-05-17T05:24:04.118Z,30.23
2019-05-17T05:26:36.072Z,26.20
2019-05-17T05:29:07.735Z,26.68
2019-05-17T05:31:39.694Z,27.25
2019-05-17T05:34:12.342Z,26.87
2019-05-17T05:36:43.909Z,26.48
2019-05-17T05:39:15.374Z,25.97
2019-05-17T05:41:47.335Z,24.92
2019-05-17T05:44:21.426Z,25.62
2019-05-17T05:46:52.796Z,26.42
2019-05-17T05:49:25.531Z,27.60
2019-05-17T05:51:57.737Z,29.57
2019-05-17T05:54:29.206Z,27.35
2019-05-17T05:57:02.327Z,26.68
2019-05-17T05:59:35.510Z,29.15
2019-05-17T06:02:07.159Z,25.77
2019-05-17T06:04:39.091Z,26.55
2019-05-17T06:07:12.910Z,26.50
2019-05-17T06:09:44.493Z,26.40
2019-05-17T06:12:23.791Z,25.05
2019-05-17T06:14:49.396Z,25.40
2019-05-17T06:17:21.619Z,25.55
2019-05-17T06:19:53.344Z,25.57
2019-05-17T06:22:24.773Z,26.70
2019-05-17T06:24:56.530Z,24.05
2019-05-17T06:27:28.494Z,24.95
2019-05-17T06:30:01.469Z,28.90
2019-05-17T06:32:33.235Z,27.48
2019-05-17T06:35:05.554Z,25.37
2019-05-17T06:37:37.158Z,25.00
2019-05-17T06:40:09.427Z,24.27
2019-05-17T06:42:44.980Z,23.90
2019-05-17T06:45:15.197Z,22.95
2019-05-17T06:47:47.067Z,24.82
2019-05-17T06:50:18.814Z,24.37
2019-05-17T06:52:53.112Z,23.30
2019-05-17T06:55:24.371Z,23.05
2019-05-17T06:57:55.932Z,23.20
2019-05-17T07:00:29.886Z,21.90
2019-05-17T07:03:01.935Z,22.87
2019-05-17T07:05:35.418Z,20.80
2019-05-17T07:08:06.849Z,21.82
2019-05-17T07:10:40.022Z,20.43
2019-05-17T07:13:11.826Z,19.80
2019-05-17T07:15:47.610Z,20.37
2019-05-17T07:18:19.280Z,21.60
2019-05-17T07:20:50.388Z,20.57
2019-05-17T07:23:22.022Z,20.43
2019-05-17T07:25:53.717Z,19.32
2019-05-17T07:28:25.518Z,17.92
2019-05-17T07:30:59.465Z,17.02
2019-05-17T07:33:30.732Z,23.70
2019-05-17T07:36:02.692Z,15.75
2019-05-17T07:38:34.032Z,15.95
2019-05-17T07:41:05.549Z,15.28
2019-05-17T07:43:37.395Z,16.77
2019-05-17T07:46:09.676Z,15.20
2019-05-17T07:48:41.341Z,14.70
2019-05-17T07:51:13.285Z,14.30
2019-05-17T07:53:45.349Z,14.13
2019-05-17T07:56:17.037Z,15.28
2019-05-17T07:58:49.492Z,14.78
2019-05-17T08:01:23.182Z,13.98
2019-05-17T08:03:55.200Z,12.68
2019-05-17T08:06:26.904Z,15.95
2019-05-17T08:09:03.945Z,15.80
2019-05-17T08:11:32.068Z,14.95
2019-05-17T08:14:03.918Z,16.40
2019-05-17T08:16:35.782Z,18.32
2019-05-17T08:19:09.597Z,16.80
2019-05-17T08:21:40.886Z,16.30
2019-05-17T08:24:13.405Z,13.95
2019-05-17T08:26:45.262Z,14.23
2019-05-17T08:29:16.979Z,13.50
2019-05-17T08:31:49.727Z,13.18
2019-05-17T08:34:21.254Z,13.10
2019-05-17T08:36:53.007Z,12.90
2019-05-17T08:39:24.681Z,12.90
2019-05-17T08:41:56.429Z,11.63
2019-05-17T08:44:29.887Z,12.35
2019-05-17T08:47:01.470Z,12.13
2019-05-17T08:49:33.537Z,12.53
2019-05-17T08:52:05.283Z,11.33
2019-05-17T08:54:40.533Z,12.33
2019-05-17T08:57:10.388Z,12.23
2019-05-17T08:59:41.914Z,12.20
2019-05-17T09:02:13.864Z,10.68
2019-05-17T09:04:45.724Z,12.45
2019-05-17T09:07:20.196Z,11.88
2019-05-17T09:09:51.196Z,10.50
2019-05-17T09:12:22.940Z,11.68
2019-05-17T09:14:54.492Z,10.58
2019-05-17T09:17:26.250Z,13.30
2019-05-17T09:20:00.463Z,12.55
2019-05-17T09:22:31.610Z,11.30
2019-05-17T09:25:03.505Z,12.90
2019-05-17T09:27:35.026Z,9.83
2019-05-17T09:30:09.462Z,9.40
2019-05-17T09:32:41.089Z,8.28
2019-05-17T09:35:13.059Z,10.53
2019-05-17T09:37:45.015Z,21.93
2019-05-17T09:40:16.985Z,10.85
2019-05-17T09:42:49.952Z,9.03
2019-05-17T09:45:21.826Z,9.40
2019-05-17T09:47:53.585Z,10.18
2019-05-17T09:50:25.298Z,10.48
2019-05-17T09:52:57.125Z,9.83
2019-05-17T09:55:30.069Z,9.93
2019-05-17T09:58:01.634Z,9.58
2019-05-17T10:00:33.965Z,9.33
2019-05-17T10:03:05.617Z,8.73
2019-05-17T10:05:40.305Z,9.18
2019-05-17T10:08:11.181Z,9.68
2019-05-17T10:10:43.088Z,7.37
2019-05-17T10:13:14.855Z,6.90
2019-05-17T10:15:46.809Z,7.22
2019-05-17T10:18:20.040Z,8.15
2019-05-17T10:20:51.548Z,7.90
2019-05-17T10:23:23.132Z,7.37
2019-05-17T10:25:54.967Z,6.83
2019-05-17T10:28:26.621Z,6.85
2019-05-17T10:31:02.061Z,7.40
2019-05-17T10:33:31.367Z,6.97
2019-05-17T10:36:03.123Z,6.85
2019-05-17T10:38:34.888Z,7.00
2019-05-17T10:41:06.588Z,5.95
2019-05-17T10:43:39.245Z,6.10
2019-05-17T10:46:10.876Z,6.10
2019-05-17T10:48:42.627Z,6.10
2019-05-17T10:51:14.399Z,5.55
2019-05-17T10:53:46.148Z,6.03
2019-05-17T10:56:19.930Z,6.12
2019-05-17T10:58:51.036Z,6.42
2019-05-17T11:01:22.749Z,5.00
2019-05-17T11:03:54.408Z,5.50
2019-05-17T11:06:25.849Z,5.33
2019-05-17T11:08:59.511Z,7.83
2019-05-17T11:11:30.696Z,7.40
2019-05-17T11:14:02.565Z,8.00
2019-05-17T11:16:33.952Z,5.92
2019-05-17T11:19:08.652Z,6.12
2019-05-17T11:21:38.855Z,5.50
2019-05-17T11:24:10.405Z,5.92
2019-05-17T11:26:41.792Z,6.47
2019-05-17T11:29:13.517Z,8.38
2019-05-17T11:31:45.169Z,15.38
2019-05-17T11:34:17.095Z,10.58
2019-05-17T11:36:49.027Z,6.12
2019-05-17T11:39:20.851Z,6.30
2019-05-17T11:41:52.520Z,6.20
2019-05-17T11:44:24.429Z,5.72
2019-05-17T11:46:56.045Z,5.53
2019-05-17T11:49:27.896Z,5.97
2019-05-17T11:51:59.844Z,8.23
2019-05-17T11:54:31.401Z,5.97
2019-05-17T11:57:03.263Z,5.83
2019-05-17T11:59:35.059Z,6.67
2019-05-17T12:02:07.607Z,8.00
2019-05-17T12:04:39.157Z,5.25
2019-05-17T12:07:10.558Z,6.12
2019-05-17T12:09:43.399Z,8.68
2019-05-17T12:12:15.077Z,6.08
2019-05-17T12:14:46.920Z,7.75
2019-05-17T12:17:18.337Z,6.10
2019-05-17T12:19:50.303Z,9.78
2019-05-17T12:22:22.083Z,5.08
2019-05-17T12:24:53.637Z,4.55
2019-05-17T12:27:25.317Z,7.78
2019-05-17T12:29:57.174Z,5.40
2019-05-17T12:32:28.678Z,6.03
2019-05-17T12:35:00.562Z,6.03
2019-05-17T12:37:32.428Z,5.37
2019-05-17T12:40:05.376Z,5.62
2019-05-17T12:42:36.838Z,8.75
2019-05-17T12:45:09.244Z,5.35
2019-05-17T12:47:40.721Z,6.78
2019-05-17T12:50:12.847Z,17.27
2019-05-17T12:52:44.379Z,6.50
2019-05-17T12:55:16.449Z,5.67
2019-05-17T12:57:48.325Z,6.08
2019-05-17T13:00:20.597Z,8.65
2019-05-17T13:02:52.090Z,5.75
2019-05-17T13:05:23.594Z,4.97
2019-05-17T13:07:55.342Z,5.58
2019-05-17T13:10:26.906Z,5.40
2019-05-17T13:12:58.645Z,6.75
2019-05-17T13:15:30.140Z,6.37
2019-05-17T13:18:01.756Z,5.45
2019-05-17T13:20:33.398Z,8.73
2019-05-17T13:23:05.290Z,5.72
2019-05-17T13:25:36.756Z,6.45
2019-05-17T13:28:08.397Z,20.15
2019-05-17T13:30:40.347Z,6.95
2019-05-17T13:33:12.006Z,5.37
2019-05-17T13:35:43.924Z,5.58
2019-05-17T13:38:15.588Z,6.00
2019-05-17T13:40:47.269Z,5.50
2019-05-17T13:43:18.949Z,4.78
2019-05-17T13:45:50.697Z,26.55
2019-05-17T13:48:22.230Z,8.00
2019-05-17T13:50:53.928Z,5.03
2019-05-17T13:53:25.611Z,5.92
2019-05-17T13:55:57.513Z,6.50
2019-05-17T13:58:29.076Z,5.65
2019-05-17T14:01:01.283Z,6.35
2019-05-17T14:03:34.429Z,5.30
2019-05-17T14:06:06.094Z,5.80
2019-05-17T14:08:37.823Z,5.20
2019-05-17T14:11:09.433Z,6.72
2019-05-17T14:13:42.463Z,4.55
2019-05-17T14:16:14.428Z,5.00
2019-05-17T14:18:46.418Z,5.15
2019-05-17T14:21:18.172Z,5.83
2019-05-17T14:23:49.903Z,5.95
2019-05-17T14:26:21.421Z,7.05
2019-05-17T14:28:53.193Z,5.40
2019-05-17T14:31:25.051Z,5.95
2019-05-17T14:33:56.937Z,5.70
2019-05-17T14:36:30.236Z,11.30
2019-05-17T14:39:02.333Z,8.65
2019-05-17T14:41:35.608Z,5.20
2019-05-17T14:44:07.042Z,5.45
2019-05-17T14:46:38.899Z,18.45
2019-05-17T14:49:10.764Z,7.17
2019-05-17T14:51:42.326Z,5.92
2019-05-17T14:54:14.063Z,6.70
2019-05-17T14:56:45.814Z,5.65
2019-05-17T14:59:17.705Z,4.75
2019-05-17T15:01:49.944Z,7.20
2019-05-17T15:04:21.813Z,10.78
2019-05-17T15:06:53.851Z,4.85
2019-05-17T15:09:25.332Z,6.03
2019-05-17T15:11:58.585Z,5.35
2019-05-17T15:14:30.103Z,4.95
2019-05-17T15:17:03.095Z,6.80
2019-05-17T15:19:35.431Z,5.50
2019-05-17T15:22:07.208Z,6.30
2019-05-17T15:24:39.159Z,5.47
2019-05-17T15:27:10.631Z,5.50
2019-05-17T15:29:42.463Z,5.12
2019-05-17T15:32:14.141Z,6.15
2019-05-17T15:34:45.913Z,4.95
2019-05-17T15:37:17.534Z,6.58
2019-05-17T15:39:48.981Z,6.17
2019-05-17T15:42:20.658Z,6.08
2019-05-17T15:44:52.390Z,5.87
2019-05-17T15:47:24.418Z,5.03
2019-05-17T15:49:56.418Z,5.10
2019-05-17T15:52:28.187Z,5.97
2019-05-17T15:54:59.829Z,6.87
2019-05-17T15:57:31.521Z,5.17
2019-05-17T16:00:03.650Z,6.10
2019-05-17T16:02:36.539Z,5.58
2019-05-17T16:05:08.993Z,4.03
2019-05-17T16:07:40.476Z,5.37
2019-05-17T16:10:13.187Z,7.40
2019-05-17T16:13:00.852Z,6.42
2019-05-17T16:15:18.243Z,4.65
2019-05-17T16:17:50.015Z,5.00
2019-05-17T16:20:22.751Z,6.80
2019-05-17T16:22:55.036Z,5.58
2019-05-17T16:25:26.792Z,6.12
2019-05-17T16:27:58.724Z,5.20
2019-05-17T16:30:30.192Z,4.78
2019-05-17T16:33:01.953Z,5.95
2019-05-17T16:35:33.488Z,5.37
2019-05-17T16:38:05.241Z,5.40
2019-05-17T16:40:37.148Z,5.00
2019-05-17T16:43:17.778Z,5.70
2019-05-17T16:45:42.255Z,5.67
2019-05-17T16:48:14.117Z,6.83
2019-05-17T16:50:46.065Z,15.88
2019-05-17T16:53:18.348Z,9.40
2019-05-17T16:55:50.006Z,6.03
2019-05-17T16:58:22.707Z,12.68
2019-05-17T17:00:54.342Z,7.62
2019-05-17T17:03:34.815Z,5.58
2019-05-17T17:06:00.145Z,5.87
2019-05-17T17:08:32.372Z,5.15
2019-05-17T17:11:03.861Z,6.50
2019-05-17T17:13:35.595Z,5.62
2019-05-17T17:16:07.349Z,5.25
2019-05-17T17:18:38.902Z,5.22
2019-05-17T17:21:10.555Z,6.15
2019-05-17T17:23:42.366Z,5.95
2019-05-17T17:26:14.034Z,5.97
2019-05-17T17:28:45.515Z,6.08
2019-05-17T17:31:17.428Z,5.92
2019-05-17T17:33:49.176Z,19.52
2019-05-17T17:36:20.900Z,10.85
2019-05-17T17:38:52.958Z,6.60
2019-05-17T17:41:26.630Z,10.78
2019-05-17T17:43:59.303Z,17.65
2019-05-17T17:46:31.048Z,6.47
2019-05-17T17:49:02.998Z,11.68
2019-05-17T17:51:34.649Z,6.65
2019-05-17T17:54:06.980Z,8.65
2019-05-17T17:56:38.839Z,11.57
2019-05-17T17:59:10.927Z,9.03
2019-05-17T18:01:42.791Z,10.20
2019-05-17T18:04:14.674Z,7.08
2019-05-17T18:06:46.394Z,5.67
2019-05-17T18:09:19.195Z,5.35
2019-05-17T18:11:50.822Z,5.35
2019-05-17T18:14:22.585Z,5.97
2019-05-17T18:16:54.033Z,17.75
2019-05-17T18:19:25.823Z,6.92
2019-05-17T18:21:57.564Z,5.30
2019-05-17T18:24:29.108Z,7.10
2019-05-17T18:27:01.087Z,5.78
2019-05-17T18:29:32.921Z,6.37
2019-05-17T18:32:04.878Z,6.25
2019-05-17T18:34:36.392Z,6.53
2019-05-17T18:37:08.245Z,5.67
2019-05-17T18:39:39.973Z,5.83
2019-05-17T18:42:11.404Z,6.25
2019-05-17T18:44:43.053Z,6.08
2019-05-17T18:47:14.734Z,21.20
2019-05-17T18:49:46.874Z,7.15
2019-05-17T18:52:18.735Z,6.85
2019-05-17T18:54:50.332Z,5.60
2019-05-17T18:57:22.044Z,6.20
2019-05-17T18:59:54.754Z,5.30
2019-05-17T19:02:26.591Z,6.00
2019-05-17T19:04:57.974Z,6.97
2019-05-17T19:07:29.503Z,5.75
2019-05-17T19:10:01.301Z,6.22
2019-05-17T19:12:33.000Z,5.78
2019-05-17T19:15:10.502Z,8.70
2019-05-17T19:17:42.045Z,6.58
2019-05-17T19:20:13.939Z,6.17
2019-05-17T19:22:45.534Z,5.92
2019-05-17T19:25:17.466Z,6.05
2019-05-17T19:27:49.008Z,7.20
2019-05-17T19:30:20.856Z,20.17
2019-05-17T19:32:53.614Z,7.83
2019-05-17T19:35:26.093Z,11.15
2019-05-17T19:37:57.811Z,7.87
2019-05-17T19:40:29.708Z,7.30
2019-05-17T19:43:01.464Z,8.68
2019-05-17T19:45:33.424Z,13.15
2019-05-17T19:48:05.115Z,5.53
2019-05-17T19:50:36.764Z,5.87
2019-05-17T19:53:08.632Z,5.75
2019-05-17T19:55:40.524Z,5.65
2019-05-17T19:58:12.114Z,5.45
2019-05-17T20:00:44.077Z,5.47
2019-05-17T20:03:15.727Z,5.03
2019-05-17T20:05:47.468Z,6.15
2019-05-17T20:08:19.350Z,5.83
2019-05-17T20:10:52.142Z,5.00
2019-05-17T20:13:23.663Z,5.25
2019-05-17T20:15:55.142Z,5.45
2019-05-17T20:18:26.710Z,4.92
2019-05-17T20:20:58.554Z,5.70
2019-05-17T20:23:30.514Z,5.12
2019-05-17T20:26:02.241Z,5.53
2019-05-17T20:28:33.847Z,5.25
2019-05-17T20:31:05.703Z,5.55
2019-05-17T20:33:37.353Z,5.62
2019-05-17T20:36:09.039Z,5.30
2019-05-17T20:38:40.866Z,5.22
2019-05-17T20:41:12.423Z,5.10
2019-05-17T20:43:44.064Z,5.50
2019-05-17T20:46:15.933Z,5.20
2019-05-17T20:48:47.423Z,5.25
2019-05-17T20:51:18.923Z,5.05
2019-05-17T20:53:50.801Z,5.10
2019-05-17T20:56:32.287Z,4.97
2019-05-17T20:58:56.557Z,4.62
2019-05-17T21:01:28.630Z,4.58
2019-05-17T21:04:00.679Z,4.75
2019-05-17T21:06:32.438Z,4.78
2019-05-17T21:09:05.317Z,4.85
2019-05-17T21:11:36.797Z,5.08
2019-05-17T21:14:08.523Z,4.85
2019-05-17T21:16:40.405Z,4.85
2019-05-17T21:19:11.958Z,4.65
2019-05-17T21:21:43.741Z,4.58
2019-05-17T21:24:15.557Z,4.87
2019-05-17T21:26:47.108Z,4.72
2019-05-17T21:29:18.886Z,4.53
2019-05-17T21:31:50.766Z,4.25
2019-05-17T21:34:22.304Z,4.30
2019-05-17T21:36:54.011Z,4.92
2019-05-17T21:39:25.450Z,4.20
2019-05-17T21:41:57.107Z,5.65
2019-05-17T21:44:28.908Z,4.97
2019-05-17T21:47:04.558Z,4.58
2019-05-17T21:49:33.860Z,4.30
2019-05-17T21:52:06.018Z,4.35
2019-05-17T21:54:37.776Z,4.42
2019-05-17T21:57:09.328Z,5.00
2019-05-17T21:59:41.079Z,4.40
2019-05-17T22:02:13.152Z,4.60
2019-05-17T22:04:45.116Z,4.83
2019-05-17T22:07:16.886Z,4.30
2019-05-17T22:09:48.620Z,4.65
2019-05-17T22:12:20.426Z,5.08
2019-05-17T22:14:52.034Z,4.90
2019-05-17T22:17:23.708Z,4.70
2019-05-17T22:19:55.477Z,4.50
2019-05-17T22:22:27.109Z,4.67
2019-05-17T22:24:58.963Z,5.33
2019-05-17T22:27:30.416Z,4.30
2019-05-17T22:30:02.094Z,4.60
2019-05-17T22:32:33.951Z,4.75
2019-05-17T22:35:06.724Z,4.35
2019-05-17T22:37:38.552Z,4.85
2019-05-17T22:40:10.043Z,5.17
2019-05-17T22:42:41.686Z,5.03
2019-05-17T22:45:13.874Z,4.80
2019-05-17T22:47:45.466Z,4.80
2019-05-17T22:50:17.166Z,5.00
2019-05-17T22:52:49.017Z,5.40
2019-05-17T22:55:20.789Z,4.75
2019-05-17T22:57:52.485Z,4.62
2019-05-17T23:00:24.315Z,4.83
2019-05-17T23:02:55.861Z,5.33
2019-05-17T23:05:27.598Z,5.10
2019-05-17T23:07:59.379Z,5.78
2019-05-17T23:10:34.894Z,6.08
2019-05-17T23:13:05.022Z,5.00
2019-05-17T23:15:38.105Z,5.00
2019-05-17T23:18:09.601Z,5.65
2019-05-17T23:20:41.109Z,6.08
2019-05-17T23:23:15.489Z,5.30
2019-05-17T23:25:46.372Z,5.22
2019-05-17T23:28:19.384Z,5.72
2019-05-17T23:30:51.226Z,4.90
2019-05-17T23:33:22.976Z,5.97
2019-05-17T23:35:54.732Z,5.30
2019-05-17T23:38:26.595Z,5.03
2019-05-17T23:40:58.477Z,4.83
2019-05-17T23:43:31.352Z,4.72
2019-05-17T23:46:03.110Z,4.47
2019-05-17T23:48:35.195Z,4.00
2019-05-17T23:51:06.615Z,4.85
2019-05-17T23:53:38.485Z,4.58
2019-05-17T23:56:10.237Z,5.05
2019-05-17T23:58:42.108Z,4.40
